sensor_id;sensor_type;location;lat;lon;timestamp;noise_LAeq;noise_LA_min;noise_LA_max;noise_LA01;noise_LA95
60116;Laerm;62818;49.394;8.686;2023-07-13T00:00:49;62.79;43.86;74.34;;
60116;Laerm;62818;49.394;8.686;2023-07-13T00:01:50;62.15;44.83;73.27;;
60116;Laerm;62818;49.394;8.686;2023-07-13T00:02:52;62.47;44.03;73.64;;
60116;Laerm;62818;49.394;8.686;2023-07-13T00:03:57;62.93;43.94;74.10;;
60116;Laerm;62818;49.394;8.686;2023-07-13T00:04:57;61.32;44.43;70.82;;
60116;Laerm;62818;49.394;8.686;2023-07-13T00:06:01;59.21;43.81;66.90;;
60116;Laerm;62818;49.394;8.686;2023-07-13T00:07:02;62.09;43.90;72.26;;
60116;Laerm;62818;49.394;8.686;2023-07-13T00:08:03;62.20;43.34;73.43;;
60116;Laerm;62818;49.394;8.686;2023-07-13T00:09:03;59.84;43.81;68.89;;
60116;Laerm;62818;49.394;8.686;2023-07-13T00:10:05;61.74;43.44;73.07;;
60116;Laerm;62818;49.394;8.686;2023-07-13T00:11:06;62.60;43.49;73.38;;
60116;Laerm;62818;49.394;8.686;2023-07-13T00:12:33;58.02;43.49;67.46;;
60116;Laerm;62818;49.394;8.686;2023-07-13T00:13:34;59.68;43.58;68.25;;
60116;Laerm;62818;49.394;8.686;2023-07-13T00:14:34;59.51;43.68;67.81;;
60116;Laerm;62818;49.394;8.686;2023-07-13T00:15:35;59.43;44.54;67.02;;
60116;Laerm;62818;49.394;8.686;2023-07-13T00:16:39;59.21;43.63;67.17;;
60116;Laerm;62818;49.394;8.686;2023-07-13T00:17:43;59.48;43.72;67.47;;
60116;Laerm;62818;49.394;8.686;2023-07-13T00:18:47;59.37;43.33;67.58;;
60116;Laerm;62818;49.394;8.686;2023-07-13T00:19:48;59.02;43.58;66.78;;
60116;Laerm;62818;49.394;8.686;2023-07-13T00:20:49;60.35;43.58;70.57;;
60116;Laerm;62818;49.394;8.686;2023-07-13T00:21:49;62.08;43.63;72.62;;
60116;Laerm;62818;49.394;8.686;2023-07-13T00:22:53;61.85;43.58;72.83;;
60116;Laerm;62818;49.394;8.686;2023-07-13T00:23:54;62.25;43.58;73.17;;
60116;Laerm;62818;49.394;8.686;2023-07-13T00:24:54;60.10;43.68;69.66;;
60116;Laerm;62818;49.394;8.686;2023-07-13T00:25:58;62.14;43.54;72.65;;
60116;Laerm;62818;49.394;8.686;2023-07-13T00:26:58;62.24;43.58;73.96;;
60116;Laerm;62818;49.394;8.686;2023-07-13T00:27:59;62.11;43.72;73.63;;
60116;Laerm;62818;49.394;8.686;2023-07-13T00:29:00;61.81;43.86;72.75;;
60116;Laerm;62818;49.394;8.686;2023-07-13T00:30:00;61.46;43.39;72.35;;
60116;Laerm;62818;49.394;8.686;2023-07-13T00:31:01;62.02;44.07;73.35;;
60116;Laerm;62818;49.394;8.686;2023-07-13T00:32:04;61.95;43.99;73.60;;
60116;Laerm;62818;49.394;8.686;2023-07-13T00:33:05;62.59;44.12;73.21;;
60116;Laerm;62818;49.394;8.686;2023-07-13T00:34:06;60.15;43.49;69.30;;
60116;Laerm;62818;49.394;8.686;2023-07-13T00:35:07;60.17;43.34;70.32;;
60116;Laerm;62818;49.394;8.686;2023-07-13T00:36:09;59.21;43.34;66.66;;
60116;Laerm;62818;49.394;8.686;2023-07-13T00:37:09;59.80;43.44;67.36;;
60116;Laerm;62818;49.394;8.686;2023-07-13T00:38:10;59.63;43.72;68.94;;
60116;Laerm;62818;49.394;8.686;2023-07-13T00:39:10;59.95;43.58;69.07;;
60116;Laerm;62818;49.394;8.686;2023-07-13T00:40:13;58.81;43.54;68.04;;
60116;Laerm;62818;49.394;8.686;2023-07-13T00:41:14;59.19;43.72;67.50;;
60116;Laerm;62818;49.394;8.686;2023-07-13T00:42:14;59.45;43.72;68.06;;
60116;Laerm;62818;49.394;8.686;2023-07-13T00:43:21;59.21;43.44;67.15;;
60116;Laerm;62818;49.394;8.686;2023-07-13T00:44:22;61.44;43.54;72.38;;
60116;Laerm;62818;49.394;8.686;2023-07-13T00:46:31;57.75;43.44;66.97;;
60116;Laerm;62818;49.394;8.686;2023-07-13T00:47:32;61.11;43.49;71.74;;
60116;Laerm;62818;49.394;8.686;2023-07-13T00:48:37;59.63;43.49;69.12;;
60116;Laerm;62818;49.394;8.686;2023-07-13T00:49:38;59.91;43.34;69.89;;
60116;Laerm;62818;49.394;8.686;2023-07-13T00:50:40;61.98;43.58;72.27;;
60116;Laerm;62818;49.394;8.686;2023-07-13T00:51:46;62.56;43.99;73.12;;
60116;Laerm;62818;49.394;8.686;2023-07-13T00:52:52;62.59;43.44;74.53;;
60116;Laerm;62818;49.394;8.686;2023-07-13T00:53:59;60.39;43.54;69.98;;
60116;Laerm;62818;49.394;8.686;2023-07-13T00:55:00;62.37;43.49;73.60;;
60116;Laerm;62818;49.394;8.686;2023-07-13T00:56:03;61.70;44.03;71.84;;
60116;Laerm;62818;49.394;8.686;2023-07-13T00:57:09;62.29;43.49;74.11;;
60116;Laerm;62818;49.394;8.686;2023-07-13T00:58:11;62.56;43.34;73.82;;
60116;Laerm;62818;49.394;8.686;2023-07-13T00:59:15;62.32;43.72;74.19;;
60116;Laerm;62818;49.394;8.686;2023-07-13T01:00:21;62.36;43.24;73.83;;
60116;Laerm;62818;49.394;8.686;2023-07-13T01:01:23;62.77;43.44;74.20;;
60116;Laerm;62818;49.394;8.686;2023-07-13T01:02:24;60.32;43.24;70.44;;
60116;Laerm;62818;49.394;8.686;2023-07-13T01:03:25;59.90;43.34;68.36;;
60116;Laerm;62818;49.394;8.686;2023-07-13T01:04:26;61.31;43.49;72.43;;
60116;Laerm;62818;49.394;8.686;2023-07-13T01:05:26;59.27;43.44;68.33;;
60116;Laerm;62818;49.394;8.686;2023-07-13T01:06:27;59.68;43.29;69.04;;
60116;Laerm;62818;49.394;8.686;2023-07-13T01:07:28;58.87;43.81;66.44;;
60116;Laerm;62818;49.394;8.686;2023-07-13T01:08:28;60.20;44.27;70.54;;
60116;Laerm;62818;49.394;8.686;2023-07-13T01:09:29;59.69;45.86;67.38;;
60116;Laerm;62818;49.394;8.686;2023-07-13T01:10:30;58.44;44.31;67.41;;
60116;Laerm;62818;49.394;8.686;2023-07-13T01:11:39;58.97;43.54;66.66;;
60116;Laerm;62818;49.394;8.686;2023-07-13T01:12:40;59.58;43.39;67.26;;
60116;Laerm;62818;49.394;8.686;2023-07-13T01:13:41;57.64;43.49;66.41;;
60116;Laerm;62818;49.394;8.686;2023-07-13T01:14:41;60.45;43.54;71.57;;
60116;Laerm;62818;49.394;8.686;2023-07-13T01:15:46;59.46;43.72;68.47;;
60116;Laerm;62818;49.394;8.686;2023-07-13T01:16:48;61.81;43.68;72.57;;
60116;Laerm;62818;49.394;8.686;2023-07-13T01:17:49;59.41;43.34;66.91;;
60116;Laerm;62818;49.394;8.686;2023-07-13T01:18:50;60.49;43.86;70.68;;
60116;Laerm;62818;49.394;8.686;2023-07-13T01:19:50;61.65;43.58;71.86;;
60116;Laerm;62818;49.394;8.686;2023-07-13T01:21:01;59.17;43.77;69.77;;
60116;Laerm;62818;49.394;8.686;2023-07-13T01:22:05;61.91;43.46;72.14;;
60116;Laerm;62818;49.394;8.686;2023-07-13T01:23:11;59.41;43.44;67.04;;
60116;Laerm;62818;49.394;8.686;2023-07-13T01:24:13;61.99;43.72;72.78;;
60116;Laerm;62818;49.394;8.686;2023-07-13T01:25:13;60.58;43.72;69.07;;
60116;Laerm;62818;49.394;8.686;2023-07-13T01:26:14;59.52;43.63;68.69;;
60116;Laerm;62818;49.394;8.686;2023-07-13T01:27:21;61.35;43.58;72.18;;
60116;Laerm;62818;49.394;8.686;2023-07-13T01:28:25;62.68;43.94;73.11;;
60116;Laerm;62818;49.394;8.686;2023-07-13T01:29:27;62.67;43.58;74.30;;
60116;Laerm;62818;49.394;8.686;2023-07-13T01:30:27;60.61;43.54;69.89;;
60116;Laerm;62818;49.394;8.686;2023-07-13T01:31:28;59.63;43.68;70.20;;
60116;Laerm;62818;49.394;8.686;2023-07-13T01:32:28;58.38;43.58;66.51;;
60116;Laerm;62818;49.394;8.686;2023-07-13T01:33:29;57.97;43.76;66.85;;
60116;Laerm;62818;49.394;8.686;2023-07-13T01:34:29;58.95;43.76;67.46;;
60116;Laerm;62818;49.394;8.686;2023-07-13T01:35:30;59.71;45.23;67.10;;
60116;Laerm;62818;49.394;8.686;2023-07-13T01:36:30;59.56;43.99;67.18;;
60116;Laerm;62818;49.394;8.686;2023-07-13T01:37:31;58.66;43.86;67.64;;
60116;Laerm;62818;49.394;8.686;2023-07-13T01:38:35;61.51;44.03;71.38;;
60116;Laerm;62818;49.394;8.686;2023-07-13T01:39:36;59.62;43.81;66.68;;
60116;Laerm;62818;49.394;8.686;2023-07-13T01:40:38;62.09;43.63;71.51;;
60116;Laerm;62818;49.394;8.686;2023-07-13T01:41:38;63.09;43.29;73.69;;
60116;Laerm;62818;49.394;8.686;2023-07-13T01:42:39;61.31;43.58;70.61;;
60116;Laerm;62818;49.394;8.686;2023-07-13T01:43:39;62.77;43.72;73.29;;
60116;Laerm;62818;49.394;8.686;2023-07-13T01:44:40;62.29;43.63;72.56;;
60116;Laerm;62818;49.394;8.686;2023-07-13T01:45:41;62.43;43.44;72.81;;
60116;Laerm;62818;49.394;8.686;2023-07-13T01:46:41;62.52;43.68;72.33;;
60116;Laerm;62818;49.394;8.686;2023-07-13T01:47:41;62.06;44.19;73.56;;
60116;Laerm;62818;49.394;8.686;2023-07-13T01:48:42;62.46;43.72;72.73;;
60116;Laerm;62818;49.394;8.686;2023-07-13T01:49:42;60.24;43.29;68.10;;
60116;Laerm;62818;49.394;8.686;2023-07-13T01:50:43;60.39;43.77;69.23;;
60116;Laerm;62818;49.394;8.686;2023-07-13T01:51:44;62.84;44.03;72.53;;
60116;Laerm;62818;49.394;8.686;2023-07-13T01:52:44;62.86;46.62;74.47;;
60116;Laerm;62818;49.394;8.686;2023-07-13T01:53:44;62.80;43.77;71.72;;
60116;Laerm;62818;49.394;8.686;2023-07-13T01:54:46;61.04;43.54;69.56;;
60116;Laerm;62818;49.394;8.686;2023-07-13T01:55:46;63.00;43.34;73.33;;
60116;Laerm;62818;49.394;8.686;2023-07-13T01:56:47;62.49;43.58;73.17;;
60116;Laerm;62818;49.394;8.686;2023-07-13T01:57:48;61.73;43.72;71.00;;
60116;Laerm;62818;49.394;8.686;2023-07-13T01:58:49;63.69;44.20;72.45;;
60116;Laerm;62818;49.394;8.686;2023-07-13T01:59:49;62.40;43.89;73.54;;
60116;Laerm;62818;49.394;8.686;2023-07-13T02:00:51;59.68;43.77;67.82;;
60116;Laerm;62818;49.394;8.686;2023-07-13T02:01:52;61.46;43.94;70.11;;
60116;Laerm;62818;49.394;8.686;2023-07-13T02:02:52;61.04;43.72;69.07;;
60116;Laerm;62818;49.394;8.686;2023-07-13T02:03:53;61.00;43.29;70.43;;
60116;Laerm;62818;49.394;8.686;2023-07-13T02:04:53;60.49;43.44;69.32;;
60116;Laerm;62818;49.394;8.686;2023-07-13T02:05:54;62.93;43.29;72.68;;
60116;Laerm;62818;49.394;8.686;2023-07-13T02:06:54;60.35;43.44;69.51;;
60116;Laerm;62818;49.394;8.686;2023-07-13T02:07:55;62.75;43.39;72.44;;
60116;Laerm;62818;49.394;8.686;2023-07-13T02:08:58;62.81;43.63;72.86;;
60116;Laerm;62818;49.394;8.686;2023-07-13T02:09:58;62.01;43.44;69.82;;
60116;Laerm;62818;49.394;8.686;2023-07-13T02:10:59;63.43;43.86;73.34;;
60116;Laerm;62818;49.394;8.686;2023-07-13T02:12:00;63.68;43.81;74.46;;
60116;Laerm;62818;49.394;8.686;2023-07-13T02:13:01;61.65;43.49;69.97;;
60116;Laerm;62818;49.394;8.686;2023-07-13T02:14:02;60.48;43.81;69.15;;
60116;Laerm;62818;49.394;8.686;2023-07-13T02:15:03;49.99;43.54;61.38;;
60116;Laerm;62818;49.394;8.686;2023-07-13T02:16:04;65.65;43.72;75.98;;
60116;Laerm;62818;49.394;8.686;2023-07-13T02:17:05;63.92;43.77;74.98;;
60116;Laerm;62818;49.394;8.686;2023-07-13T02:18:06;64.39;43.85;73.38;;
60116;Laerm;62818;49.394;8.686;2023-07-13T02:19:08;61.67;43.63;69.58;;
60116;Laerm;62818;49.394;8.686;2023-07-13T02:20:09;63.60;43.63;71.91;;
60116;Laerm;62818;49.394;8.686;2023-07-13T02:21:09;63.21;43.19;71.25;;
60116;Laerm;62818;49.394;8.686;2023-07-13T02:22:10;61.70;43.44;69.79;;
60116;Laerm;62818;49.394;8.686;2023-07-13T02:23:11;61.52;43.14;70.38;;
60116;Laerm;62818;49.394;8.686;2023-07-13T02:24:12;62.25;43.29;70.05;;
60116;Laerm;62818;49.394;8.686;2023-07-13T02:25:17;64.80;43.54;74.55;;
60116;Laerm;62818;49.394;8.686;2023-07-13T02:26:18;64.37;43.54;74.41;;
60116;Laerm;62818;49.394;8.686;2023-07-13T02:27:19;61.79;43.54;69.86;;
60116;Laerm;62818;49.394;8.686;2023-07-13T02:28:19;61.39;43.86;69.25;;
60116;Laerm;62818;49.394;8.686;2023-07-13T02:29:20;61.98;43.54;70.46;;
60116;Laerm;62818;49.394;8.686;2023-07-13T02:30:22;62.49;43.81;70.87;;
60116;Laerm;62818;49.394;8.686;2023-07-13T02:31:25;63.16;43.81;71.54;;
60116;Laerm;62818;49.394;8.686;2023-07-13T02:32:25;64.73;43.90;73.62;;
60116;Laerm;62818;49.394;8.686;2023-07-13T02:33:26;63.37;44.19;71.75;;
60116;Laerm;62818;49.394;8.686;2023-07-13T02:34:27;63.04;44.66;70.54;;
60116;Laerm;62818;49.394;8.686;2023-07-13T02:35:27;61.49;44.62;69.83;;
60116;Laerm;62818;49.394;8.686;2023-07-13T02:36:28;61.65;44.11;69.96;;
60116;Laerm;62818;49.394;8.686;2023-07-13T02:37:29;64.25;44.47;73.21;;
60116;Laerm;62818;49.394;8.686;2023-07-13T02:38:30;61.87;44.54;70.97;;
60116;Laerm;62818;49.394;8.686;2023-07-13T02:39:31;62.48;44.07;70.47;;
60116;Laerm;62818;49.394;8.686;2023-07-13T02:40:33;64.07;43.86;72.98;;
60116;Laerm;62818;49.394;8.686;2023-07-13T02:41:35;63.07;43.63;70.41;;
60116;Laerm;62818;49.394;8.686;2023-07-13T02:42:36;62.49;43.72;70.61;;
60116;Laerm;62818;49.394;8.686;2023-07-13T02:43:37;64.30;43.33;73.95;;
60116;Laerm;62818;49.394;8.686;2023-07-13T02:44:38;64.92;43.77;74.57;;
60116;Laerm;62818;49.394;8.686;2023-07-13T02:45:38;62.81;43.68;71.58;;
60116;Laerm;62818;49.394;8.686;2023-07-13T02:46:39;62.33;43.81;69.92;;
60116;Laerm;62818;49.394;8.686;2023-07-13T02:47:41;64.56;43.99;73.58;;
60116;Laerm;62818;49.394;8.686;2023-07-13T02:48:42;64.99;43.86;74.40;;
60116;Laerm;62818;49.394;8.686;2023-07-13T02:49:42;64.50;43.94;74.28;;
60116;Laerm;62818;49.394;8.686;2023-07-13T02:50:45;65.09;43.77;75.14;;
60116;Laerm;62818;49.394;8.686;2023-07-13T02:51:45;63.87;43.34;72.00;;
60116;Laerm;62818;49.394;8.686;2023-07-13T02:52:46;63.76;43.54;72.38;;
60116;Laerm;62818;49.394;8.686;2023-07-13T02:53:46;64.12;43.72;72.16;;
60116;Laerm;62818;49.394;8.686;2023-07-13T02:54:47;63.04;43.72;70.73;;
60116;Laerm;62818;49.394;8.686;2023-07-13T02:55:47;63.73;43.68;71.44;;
60116;Laerm;62818;49.394;8.686;2023-07-13T02:56:48;63.95;43.72;72.34;;
60116;Laerm;62818;49.394;8.686;2023-07-13T02:57:48;64.92;43.94;74.61;;
60116;Laerm;62818;49.394;8.686;2023-07-13T02:58:49;64.39;44.76;74.99;;
60116;Laerm;62818;49.394;8.686;2023-07-13T02:59:49;64.94;43.99;74.81;;
60116;Laerm;62818;49.394;8.686;2023-07-13T03:00:50;64.88;43.99;74.61;;
60116;Laerm;62818;49.394;8.686;2023-07-13T03:01:50;63.70;44.03;72.03;;
60116;Laerm;62818;49.394;8.686;2023-07-13T03:02:52;64.99;44.03;75.05;;
60116;Laerm;62818;49.394;8.686;2023-07-13T03:03:53;64.12;43.99;72.58;;
60116;Laerm;62818;49.394;8.686;2023-07-13T03:04:55;63.55;43.89;72.05;;
60116;Laerm;62818;49.394;8.686;2023-07-13T03:06:02;63.84;43.99;72.35;;
60116;Laerm;62818;49.394;8.686;2023-07-13T03:07:04;63.86;43.58;71.57;;
60116;Laerm;62818;49.394;8.686;2023-07-13T03:08:05;64.98;43.86;74.23;;
60116;Laerm;62818;49.394;8.686;2023-07-13T03:09:06;65.59;44.11;74.80;;
60116;Laerm;62818;49.394;8.686;2023-07-13T03:10:07;63.44;43.68;74.22;;
60116;Laerm;62818;49.394;8.686;2023-07-13T03:11:12;63.43;44.19;71.65;;
60116;Laerm;62818;49.394;8.686;2023-07-13T03:12:13;65.18;44.31;74.18;;
60116;Laerm;62818;49.394;8.686;2023-07-13T03:13:13;65.13;43.86;74.31;;
60116;Laerm;62818;49.394;8.686;2023-07-13T03:14:14;64.94;44.07;74.26;;
60116;Laerm;62818;49.394;8.686;2023-07-13T03:15:15;64.28;43.90;74.23;;
60116;Laerm;62818;49.394;8.686;2023-07-13T03:16:16;64.32;44.39;74.41;;
60116;Laerm;62818;49.394;8.686;2023-07-13T03:17:17;65.44;44.54;75.02;;
60116;Laerm;62818;49.394;8.686;2023-07-13T03:18:17;65.36;44.65;74.11;;
60116;Laerm;62818;49.394;8.686;2023-07-13T03:19:18;65.22;45.72;74.80;;
60116;Laerm;62818;49.394;8.686;2023-07-13T03:20:19;64.97;44.19;73.51;;
60116;Laerm;62818;49.394;8.686;2023-07-13T03:21:19;65.21;44.23;74.69;;
60116;Laerm;62818;49.394;8.686;2023-07-13T03:22:21;64.70;44.76;72.62;;
60116;Laerm;62818;49.394;8.686;2023-07-13T03:23:22;64.98;44.11;72.23;;
60116;Laerm;62818;49.394;8.686;2023-07-13T03:24:23;51.93;44.83;62.61;;
60116;Laerm;62818;49.394;8.686;2023-07-13T03:25:25;50.73;44.15;61.01;;
60116;Laerm;62818;49.394;8.686;2023-07-13T03:26:26;66.81;44.62;74.20;;
60116;Laerm;62818;49.394;8.686;2023-07-13T03:27:26;65.49;44.58;75.58;;
60116;Laerm;62818;49.394;8.686;2023-07-13T03:28:27;65.09;45.04;76.16;;
60116;Laerm;62818;49.394;8.686;2023-07-13T03:29:27;65.57;43.81;74.31;;
60116;Laerm;62818;49.394;8.686;2023-07-13T03:30:28;65.61;43.63;75.53;;
60116;Laerm;62818;49.394;8.686;2023-07-13T03:31:33;64.75;46.10;75.79;;
60116;Laerm;62818;49.394;8.686;2023-07-13T03:32:34;65.50;44.73;74.10;;
60116;Laerm;62818;49.394;8.686;2023-07-13T03:33:35;65.61;43.86;75.37;;
60116;Laerm;62818;49.394;8.686;2023-07-13T03:34:36;65.51;45.88;75.81;;
60116;Laerm;62818;49.394;8.686;2023-07-13T03:35:40;64.11;43.68;75.82;;
60116;Laerm;62818;49.394;8.686;2023-07-13T03:36:41;65.12;44.51;75.81;;
60116;Laerm;62818;49.394;8.686;2023-07-13T03:37:42;64.92;44.80;72.69;;
60116;Laerm;62818;49.394;8.686;2023-07-13T03:38:42;65.52;44.03;75.49;;
60116;Laerm;62818;49.394;8.686;2023-07-13T03:39:43;64.91;44.23;75.04;;
60116;Laerm;62818;49.394;8.686;2023-07-13T03:40:43;65.32;44.15;74.42;;
60116;Laerm;62818;49.394;8.686;2023-07-13T03:41:44;64.33;43.99;71.97;;
60116;Laerm;62818;49.394;8.686;2023-07-13T03:42:44;65.28;44.65;74.89;;
60116;Laerm;62818;49.394;8.686;2023-07-13T03:43:45;65.43;44.19;75.24;;
60116;Laerm;62818;49.394;8.686;2023-07-13T03:44:45;65.51;44.35;75.01;;
60116;Laerm;62818;49.394;8.686;2023-07-13T03:45:52;65.14;44.69;75.29;;
60116;Laerm;62818;49.394;8.686;2023-07-13T03:46:52;65.09;44.19;74.59;;
60116;Laerm;62818;49.394;8.686;2023-07-13T03:47:53;65.83;44.69;75.81;;
60116;Laerm;62818;49.394;8.686;2023-07-13T03:48:53;65.40;45.23;75.02;;
60116;Laerm;62818;49.394;8.686;2023-07-13T03:49:54;65.23;43.90;74.41;;
60116;Laerm;62818;49.394;8.686;2023-07-13T03:50:54;64.21;45.33;72.47;;
60116;Laerm;62818;49.394;8.686;2023-07-13T03:51:55;64.68;43.81;72.50;;
60116;Laerm;62818;49.394;8.686;2023-07-13T03:52:57;65.47;44.19;75.19;;
60116;Laerm;62818;49.394;8.686;2023-07-13T03:53:57;65.56;46.71;76.47;;
60116;Laerm;62818;49.394;8.686;2023-07-13T03:54:58;65.26;44.43;75.44;;
60116;Laerm;62818;49.394;8.686;2023-07-13T03:55:58;64.41;43.72;72.82;;
60116;Laerm;62818;49.394;8.686;2023-07-13T03:56:59;65.32;43.94;75.45;;
60116;Laerm;62818;49.394;8.686;2023-07-13T03:58:28;63.53;44.27;72.94;;
60116;Laerm;62818;49.394;8.686;2023-07-13T03:59:29;65.75;44.31;72.25;;
60116;Laerm;62818;49.394;8.686;2023-07-13T04:00:29;64.23;43.81;73.30;;
60116;Laerm;62818;49.394;8.686;2023-07-13T04:01:31;65.23;44.27;75.04;;
60116;Laerm;62818;49.394;8.686;2023-07-13T04:02:31;64.83;44.31;75.16;;
60116;Laerm;62818;49.394;8.686;2023-07-13T04:03:33;65.27;44.76;75.84;;
60116;Laerm;62818;49.394;8.686;2023-07-13T04:04:33;64.83;48.02;75.58;;
60116;Laerm;62818;49.394;8.686;2023-07-13T04:05:34;65.45;47.14;74.33;;
60116;Laerm;62818;49.394;8.686;2023-07-13T04:06:34;64.50;46.07;75.06;;
60116;Laerm;62818;49.394;8.686;2023-07-13T04:07:35;64.76;43.80;75.19;;
60116;Laerm;62818;49.394;8.686;2023-07-13T04:08:36;64.74;45.30;73.89;;
60116;Laerm;62818;49.394;8.686;2023-07-13T04:09:37;64.99;44.76;72.34;;
60116;Laerm;62818;49.394;8.686;2023-07-13T04:10:37;64.79;43.77;75.01;;
60116;Laerm;62818;49.394;8.686;2023-07-13T04:11:38;65.13;44.90;73.62;;
60116;Laerm;62818;49.394;8.686;2023-07-13T04:12:39;64.62;44.15;72.54;;
60116;Laerm;62818;49.394;8.686;2023-07-13T04:13:39;64.04;44.03;74.35;;
60116;Laerm;62818;49.394;8.686;2023-07-13T04:14:40;64.99;45.04;75.18;;
60116;Laerm;62818;49.394;8.686;2023-07-13T04:15:40;65.59;49.46;74.34;;
60116;Laerm;62818;49.394;8.686;2023-07-13T04:16:42;65.10;45.94;76.17;;
60116;Laerm;62818;49.394;8.686;2023-07-13T04:17:42;65.19;47.77;75.75;;
60116;Laerm;62818;49.394;8.686;2023-07-13T04:18:43;64.63;45.17;74.35;;
60116;Laerm;62818;49.394;8.686;2023-07-13T04:19:44;64.27;44.20;72.11;;
60116;Laerm;62818;49.394;8.686;2023-07-13T04:20:45;64.09;44.43;75.13;;
60116;Laerm;62818;49.394;8.686;2023-07-13T04:21:45;65.59;46.55;74.36;;
60116;Laerm;62818;49.394;8.686;2023-07-13T04:22:46;64.60;44.69;74.78;;
60116;Laerm;62818;49.394;8.686;2023-07-13T04:23:47;64.61;44.11;75.20;;
60116;Laerm;62818;49.394;8.686;2023-07-13T04:24:47;65.51;46.13;75.65;;
60116;Laerm;62818;49.394;8.686;2023-07-13T04:25:51;64.58;45.01;75.16;;
60116;Laerm;62818;49.394;8.686;2023-07-13T04:26:53;64.13;43.58;75.29;;
60116;Laerm;62818;49.394;8.686;2023-07-13T04:27:53;64.73;44.94;75.79;;
60116;Laerm;62818;49.394;8.686;2023-07-13T04:28:55;64.99;45.23;73.26;;
60116;Laerm;62818;49.394;8.686;2023-07-13T04:29:56;64.08;44.97;74.57;;
60116;Laerm;62818;49.394;8.686;2023-07-13T04:30:56;64.64;47.57;73.42;;
60116;Laerm;62818;49.394;8.686;2023-07-13T04:31:57;65.33;46.13;75.76;;
60116;Laerm;62818;49.394;8.686;2023-07-13T04:32:58;63.76;44.23;75.03;;
60116;Laerm;62818;49.394;8.686;2023-07-13T04:33:58;64.31;46.15;74.96;;
60116;Laerm;62818;49.394;8.686;2023-07-13T04:34:59;64.71;44.62;74.82;;
60116;Laerm;62818;49.394;8.686;2023-07-13T04:35:59;63.70;45.69;75.58;;
60116;Laerm;62818;49.394;8.686;2023-07-13T04:37:02;65.12;44.76;75.44;;
60116;Laerm;62818;49.394;8.686;2023-07-13T04:38:04;64.78;44.62;75.54;;
60116;Laerm;62818;49.394;8.686;2023-07-13T04:39:06;63.86;45.17;74.95;;
60116;Laerm;62818;49.394;8.686;2023-07-13T04:40:07;64.82;44.87;74.75;;
60116;Laerm;62818;49.394;8.686;2023-07-13T04:41:14;65.31;46.07;75.54;;
60116;Laerm;62818;49.394;8.686;2023-07-13T04:42:15;64.49;47.12;75.57;;
60116;Laerm;62818;49.394;8.686;2023-07-13T04:43:16;63.88;45.66;74.80;;
60116;Laerm;62818;49.394;8.686;2023-07-13T04:44:17;64.61;50.06;75.08;;
60116;Laerm;62818;49.394;8.686;2023-07-13T04:45:17;64.24;44.34;73.15;;
60116;Laerm;62818;49.394;8.686;2023-07-13T04:46:18;62.73;42.29;73.32;;
60116;Laerm;62818;49.394;8.686;2023-07-13T04:47:19;62.90;45.14;73.03;;
60116;Laerm;62818;49.394;8.686;2023-07-13T04:48:20;63.40;44.90;73.43;;
60116;Laerm;62818;49.394;8.686;2023-07-13T04:49:20;62.40;41.68;73.82;;
60116;Laerm;62818;49.394;8.686;2023-07-13T04:50:21;62.70;43.81;74.09;;
60116;Laerm;62818;49.394;8.686;2023-07-13T04:51:23;63.82;48.58;72.00;;
60116;Laerm;62818;49.394;8.686;2023-07-13T04:52:24;62.37;42.03;71.48;;
60116;Laerm;62818;49.394;8.686;2023-07-13T04:53:26;63.93;47.77;73.41;;
60116;Laerm;62818;49.394;8.686;2023-07-13T04:54:26;63.52;42.93;72.09;;
60116;Laerm;62818;49.394;8.686;2023-07-13T04:55:27;61.69;41.82;72.58;;
60116;Laerm;62818;49.394;8.686;2023-07-13T04:56:30;63.43;43.34;72.70;;
60116;Laerm;62818;49.394;8.686;2023-07-13T04:57:31;62.48;44.51;73.63;;
60116;Laerm;62818;49.394;8.686;2023-07-13T04:58:33;62.38;42.93;73.25;;
60116;Laerm;62818;49.394;8.686;2023-07-13T04:59:34;62.54;42.16;73.53;;
60116;Laerm;62818;49.394;8.686;2023-07-13T05:00:34;63.01;43.51;72.77;;
60116;Laerm;62818;49.394;8.686;2023-07-13T05:01:35;62.53;43.81;73.23;;
60116;Laerm;62818;49.394;8.686;2023-07-13T05:02:38;62.56;43.81;73.43;;
60116;Laerm;62818;49.394;8.686;2023-07-13T05:03:39;63.09;42.71;73.35;;
60116;Laerm;62818;49.394;8.686;2023-07-13T05:04:39;62.09;43.29;72.71;;
60116;Laerm;62818;49.394;8.686;2023-07-13T05:05:40;63.06;42.71;72.99;;
60116;Laerm;62818;49.394;8.686;2023-07-13T05:06:40;62.61;42.65;73.97;;
60116;Laerm;62818;49.394;8.686;2023-07-13T05:07:41;62.68;42.76;73.02;;
60116;Laerm;62818;49.394;8.686;2023-07-13T05:08:41;63.26;44.03;74.31;;
60116;Laerm;62818;49.394;8.686;2023-07-13T05:09:42;63.33;47.86;73.53;;
60116;Laerm;62818;49.394;8.686;2023-07-13T05:10:42;62.74;44.23;74.26;;
60116;Laerm;62818;49.394;8.686;2023-07-13T05:11:43;62.50;42.98;73.52;;
60116;Laerm;62818;49.394;8.686;2023-07-13T05:12:44;62.76;42.76;73.64;;
60116;Laerm;62818;49.394;8.686;2023-07-13T05:13:44;63.01;42.65;74.12;;
60116;Laerm;62818;49.394;8.686;2023-07-13T05:14:45;62.70;44.76;72.26;;
60116;Laerm;62818;49.394;8.686;2023-07-13T05:15:52;62.46;44.15;72.91;;
60116;Laerm;62818;49.394;8.686;2023-07-13T05:16:55;61.96;42.59;72.82;;
60116;Laerm;62818;49.394;8.686;2023-07-13T05:17:57;62.55;43.49;73.30;;
60116;Laerm;62818;49.394;8.686;2023-07-13T05:18:58;63.06;45.37;73.85;;
60116;Laerm;62818;49.394;8.686;2023-07-13T05:19:58;63.55;43.39;73.64;;
60116;Laerm;62818;49.394;8.686;2023-07-13T05:21:09;60.96;43.49;72.90;;
60116;Laerm;62818;49.394;8.686;2023-07-13T05:22:10;64.56;45.63;72.63;;
60116;Laerm;62818;49.394;8.686;2023-07-13T05:23:11;64.01;50.30;72.22;;
60116;Laerm;62818;49.394;8.686;2023-07-13T05:24:11;62.45;43.14;73.70;;
60116;Laerm;62818;49.394;8.686;2023-07-13T05:25:13;63.25;44.07;73.73;;
60116;Laerm;62818;49.394;8.686;2023-07-13T05:26:14;63.74;45.86;73.90;;
60116;Laerm;62818;49.394;8.686;2023-07-13T05:27:14;62.64;43.90;73.12;;
60116;Laerm;62818;49.394;8.686;2023-07-13T05:28:15;62.54;43.94;73.95;;
60116;Laerm;62818;49.394;8.686;2023-07-13T05:29:15;63.54;44.83;72.44;;
60116;Laerm;62818;49.394;8.686;2023-07-13T05:30:16;62.82;44.07;74.01;;
60116;Laerm;62818;49.394;8.686;2023-07-13T05:31:17;63.73;43.90;74.02;;
60116;Laerm;62818;49.394;8.686;2023-07-13T05:32:18;62.74;48.88;73.61;;
60116;Laerm;62818;49.394;8.686;2023-07-13T05:33:18;56.13;42.29;63.90;;
60116;Laerm;62818;49.394;8.686;2023-07-13T05:34:19;64.16;45.04;72.49;;
60116;Laerm;62818;49.394;8.686;2023-07-13T05:35:20;63.74;50.01;71.89;;
60116;Laerm;62818;49.394;8.686;2023-07-13T05:36:20;63.19;45.36;71.33;;
60116;Laerm;62818;49.394;8.686;2023-07-13T05:37:21;63.18;45.57;70.52;;
60116;Laerm;62818;49.394;8.686;2023-07-13T05:38:21;63.38;50.91;73.67;;
60116;Laerm;62818;49.394;8.686;2023-07-13T05:39:22;61.64;44.15;73.55;;
60116;Laerm;62818;49.394;8.686;2023-07-13T05:40:22;62.48;44.27;73.15;;
60116;Laerm;62818;49.394;8.686;2023-07-13T05:41:23;63.39;50.51;74.63;;
60116;Laerm;62818;49.394;8.686;2023-07-13T05:42:24;62.89;45.75;74.24;;
60116;Laerm;62818;49.394;8.686;2023-07-13T05:43:25;62.59;45.39;72.64;;
60116;Laerm;62818;49.394;8.686;2023-07-13T05:44:25;64.15;52.82;74.45;;
60116;Laerm;62818;49.394;8.686;2023-07-13T05:45:26;63.32;46.71;70.91;;